createdAt,value
2023-03-22T00:00:37.556Z,963.28
2023-03-22T00:01:37.308Z,963.25
2023-03-22T00:02:37.361Z,963.30
2023-03-22T00:03:37.278Z,963.31
2023-03-22T00:04:37.274Z,963.30
2023-03-22T00:05:37.241Z,963.25
2023-03-22T00:06:37.254Z,963.16
2023-03-22T00:07:37.271Z,963.19
2023-03-22T00:08:37.362Z,963.17
2023-03-22T00:09:37.174Z,963.19
2023-03-22T00:10:37.472Z,963.19
2023-03-22T00:11:37.178Z,963.14
2023-03-22T00:12:37.182Z,963.18
2023-03-22T00:13:37.133Z,963.11
2023-03-22T00:14:37.217Z,963.09
2023-03-22T00:15:37.119Z,963.10
2023-03-22T00:16:37.131Z,963.11
2023-03-22T00:17:37.120Z,963.11
2023-03-22T00:18:37.120Z,963.17
2023-03-22T00:19:37.062Z,963.15
2023-03-22T00:20:37.619Z,963.11
2023-03-22T00:21:37.174Z,963.05
2023-03-22T00:22:37.055Z,963.06
2023-03-22T00:23:37.184Z,963.05
2023-03-22T00:24:37.066Z,963.05
2023-03-22T00:25:36.994Z,963.07
2023-03-22T00:26:37.044Z,963.07
2023-03-22T00:27:37.690Z,963.05
2023-03-22T00:28:36.989Z,963.06
2023-03-22T00:29:36.988Z,963.08
2023-03-22T00:30:37.317Z,963.06
2023-03-22T00:31:37.137Z,963.05
2023-03-22T00:32:46.234Z,963.08
2023-03-22T00:33:36.932Z,963.03
2023-03-22T00:34:37.031Z,963.01
2023-03-22T00:35:36.924Z,963.03
2023-03-22T00:36:36.884Z,963.04
2023-03-22T00:37:36.948Z,963.03
2023-03-22T00:38:42.478Z,963.05
2023-03-22T00:39:37.897Z,963.07
2023-03-22T00:40:37.176Z,962.98
2023-03-22T00:41:36.889Z,963.05
2023-03-22T00:42:36.890Z,963.04
2023-03-22T00:43:36.802Z,962.98
2023-03-22T00:44:36.837Z,962.98
2023-03-22T00:45:36.801Z,962.99
2023-03-22T00:46:36.845Z,962.94
2023-03-22T00:47:36.816Z,962.96
2023-03-22T00:48:36.754Z,962.97
2023-03-22T00:49:36.766Z,962.95
2023-03-22T00:50:38.126Z,962.96
2023-03-22T00:51:36.746Z,962.96
2023-03-22T00:52:36.740Z,962.89
2023-03-22T00:53:36.728Z,962.90
2023-03-22T00:54:36.700Z,962.87
2023-03-22T00:55:36.676Z,962.88
2023-03-22T00:56:36.776Z,962.84
2023-03-22T00:57:36.683Z,962.87
2023-03-22T00:58:36.693Z,962.84
2023-03-22T00:59:36.625Z,962.82
2023-03-22T01:00:36.866Z,962.83
2023-03-22T01:01:36.805Z,962.85
2023-03-22T01:02:36.615Z,962.85
2023-03-22T01:03:36.661Z,962.85
2023-03-22T01:04:36.632Z,962.81
2023-03-22T01:05:36.556Z,962.87
2023-03-22T01:06:36.744Z,962.77
2023-03-22T01:07:36.581Z,962.78
2023-03-22T01:08:36.545Z,962.78
2023-03-22T01:09:36.571Z,962.79
2023-03-22T01:10:36.721Z,962.81
2023-03-22T01:11:36.505Z,962.87
2023-03-22T01:12:36.564Z,962.89
2023-03-22T01:13:36.517Z,962.91
2023-03-22T01:14:36.506Z,962.91
2023-03-22T01:15:36.488Z,962.87
2023-03-22T01:16:36.522Z,962.85
2023-03-22T01:17:36.425Z,962.92
2023-03-22T01:18:36.710Z,962.87
2023-03-22T01:19:36.453Z,962.89
2023-03-22T01:20:36.455Z,962.87
2023-03-22T01:21:36.432Z,962.85
2023-03-22T01:22:36.436Z,962.93
2023-03-22T01:23:36.463Z,962.86
2023-03-22T01:24:36.379Z,962.84
2023-03-22T01:25:36.350Z,962.88
2023-03-22T01:26:36.364Z,962.84
2023-03-22T01:27:36.314Z,962.81
2023-03-22T01:28:36.387Z,962.80
2023-03-22T01:29:36.303Z,962.79
2023-03-22T01:30:36.394Z,962.81
2023-03-22T01:31:36.295Z,962.83
2023-03-22T01:32:36.317Z,962.79
2023-03-22T01:33:36.445Z,962.83
2023-03-22T01:34:36.250Z,962.82
2023-03-22T01:35:36.407Z,962.83
2023-03-22T01:36:36.238Z,962.82
2023-03-22T01:37:36.241Z,962.85
2023-03-22T01:38:36.237Z,962.83
2023-03-22T01:39:36.169Z,962.80
2023-03-22T01:40:36.184Z,962.79
2023-03-22T01:41:36.189Z,962.72
2023-03-22T01:42:36.176Z,962.73
2023-03-22T01:43:36.164Z,962.73
2023-03-22T01:44:36.181Z,962.76
2023-03-22T01:45:36.119Z,962.74
2023-03-22T01:46:36.163Z,962.71
2023-03-22T01:47:36.116Z,962.67
2023-03-22T01:48:36.119Z,962.67
2023-03-22T01:49:36.107Z,962.67
2023-03-22T01:50:36.064Z,962.70
2023-03-22T01:51:36.053Z,962.64
2023-03-22T01:52:36.041Z,962.65
2023-03-22T01:53:36.041Z,962.65
2023-03-22T01:54:36.049Z,962.69
2023-03-22T01:55:35.993Z,962.68
2023-03-22T01:56:35.995Z,962.67
2023-03-22T01:57:35.971Z,962.61
2023-03-22T01:58:35.988Z,962.60
2023-03-22T01:59:35.991Z,962.62
2023-03-22T02:00:36.040Z,962.56
2023-03-22T02:01:36.083Z,962.58
2023-03-22T02:02:36.000Z,962.59
2023-03-22T02:03:35.924Z,962.56
2023-03-22T02:04:35.924Z,962.57
2023-03-22T02:05:35.933Z,962.57
2023-03-22T02:06:35.931Z,962.55
2023-03-22T02:07:35.863Z,962.56
2023-03-22T02:08:35.864Z,962.51
2023-03-22T02:09:35.888Z,962.54
2023-03-22T02:10:35.856Z,962.48
2023-03-22T02:11:35.881Z,962.50
2023-03-22T02:12:35.856Z,962.48
2023-03-22T02:13:35.791Z,962.50
2023-03-22T02:14:35.814Z,962.54
2023-03-22T02:15:35.809Z,962.57
2023-03-22T02:16:35.795Z,962.53
2023-03-22T02:17:35.800Z,962.57
2023-03-22T02:18:35.762Z,962.60
2023-03-22T02:19:35.744Z,962.50
2023-03-22T02:20:36.306Z,962.47
2023-03-22T02:21:35.721Z,962.51
2023-03-22T02:22:35.730Z,962.49
2023-03-22T02:23:35.748Z,962.50
2023-03-22T02:24:35.672Z,962.49
2023-03-22T02:25:35.686Z,962.54
2023-03-22T02:26:35.659Z,962.55
2023-03-22T02:27:35.661Z,962.52
2023-03-22T02:28:35.659Z,962.55
2023-03-22T02:29:35.672Z,962.58
2023-03-22T02:30:35.602Z,962.59
2023-03-22T02:31:35.652Z,962.54
2023-03-22T02:32:35.631Z,962.59
2023-03-22T02:33:35.622Z,962.58
2023-03-22T02:34:35.613Z,962.60
2023-03-22T02:35:35.628Z,962.61
2023-03-22T02:36:35.540Z,962.56
2023-03-22T02:37:35.528Z,962.58
2023-03-22T02:38:35.552Z,962.52
2023-03-22T02:39:35.540Z,962.59
2023-03-22T02:40:35.560Z,962.51
2023-03-22T02:41:35.494Z,962.47
2023-03-22T02:42:35.762Z,962.47
2023-03-22T02:43:35.495Z,962.51
2023-03-22T02:44:35.489Z,962.51
2023-03-22T02:45:35.490Z,962.49
2023-03-22T02:46:35.458Z,962.47
2023-03-22T02:47:35.424Z,962.57
2023-03-22T02:48:35.442Z,962.49
2023-03-22T02:49:35.412Z,962.50
2023-03-22T02:50:35.526Z,962.48
2023-03-22T02:51:35.411Z,962.50
2023-03-22T02:52:35.355Z,962.46
2023-03-22T02:53:35.525Z,962.41
2023-03-22T02:54:35.741Z,962.41
2023-03-22T02:55:35.339Z,962.40
2023-03-22T02:56:35.437Z,962.44
2023-03-22T02:57:35.351Z,962.44
2023-03-22T02:58:35.291Z,962.45
2023-03-22T02:59:35.303Z,962.43
2023-03-22T03:00:35.328Z,962.47
2023-03-22T03:01:35.303Z,962.45
2023-03-22T03:02:35.285Z,962.51
2023-03-22T03:03:35.299Z,962.55
2023-03-22T03:04:35.221Z,962.51
2023-03-22T03:05:36.231Z,962.48
2023-03-22T03:06:35.340Z,962.44
2023-03-22T03:07:35.221Z,962.49
2023-03-22T03:08:35.201Z,962.51
2023-03-22T03:09:35.163Z,962.47
2023-03-22T03:10:35.227Z,962.49
2023-03-22T03:11:35.152Z,962.47
2023-03-22T03:12:35.157Z,962.48
2023-03-22T03:13:35.155Z,962.46
2023-03-22T03:14:35.107Z,962.47
2023-03-22T03:15:35.098Z,962.47
2023-03-22T03:16:35.346Z,962.45
2023-03-22T03:17:35.117Z,962.46
2023-03-22T03:18:35.144Z,962.41
2023-03-22T03:19:35.099Z,962.45
2023-03-22T03:20:35.037Z,962.45
2023-03-22T03:21:35.108Z,962.38
2023-03-22T03:22:35.197Z,962.44
2023-03-22T03:23:35.063Z,962.43
2023-03-22T03:24:35.030Z,962.41
2023-03-22T03:25:35.135Z,962.40
2023-03-22T03:26:35.034Z,962.41
2023-03-22T03:27:34.990Z,962.39
2023-03-22T03:28:34.969Z,962.44
2023-03-22T03:29:34.974Z,962.41
2023-03-22T03:30:34.968Z,962.37
2023-03-22T03:31:35.103Z,962.36
2023-03-22T03:32:34.905Z,962.37
2023-03-22T03:33:34.927Z,962.38
2023-03-22T03:34:34.924Z,962.34
2023-03-22T03:35:35.045Z,962.39
2023-03-22T03:36:34.917Z,962.41
2023-03-22T03:37:34.852Z,962.44
2023-03-22T03:38:34.922Z,962.40
2023-03-22T03:39:34.845Z,962.36
2023-03-22T03:40:35.773Z,962.39
2023-03-22T03:41:34.838Z,962.37
2023-03-22T03:42:34.883Z,962.40
2023-03-22T03:43:34.847Z,962.43
2023-03-22T03:44:34.798Z,962.42
2023-03-22T03:45:34.809Z,962.41
2023-03-22T03:46:34.778Z,962.43
2023-03-22T03:47:34.786Z,962.45
2023-03-22T03:48:34.789Z,962.41
2023-03-22T03:49:34.727Z,962.44
2023-03-22T03:50:34.729Z,962.44
2023-03-22T03:51:34.740Z,962.49
2023-03-22T03:52:34.714Z,962.46
2023-03-22T03:53:34.714Z,962.47
2023-03-22T03:54:34.700Z,962.49
2023-03-22T03:55:34.658Z,962.48
2023-03-22T03:56:34.663Z,962.47
2023-03-22T03:57:34.654Z,962.54
2023-03-22T03:58:34.656Z,962.49
2023-03-22T03:59:34.655Z,962.47
2023-03-22T04:00:34.680Z,962.47
2023-03-22T04:01:34.610Z,962.45
2023-03-22T04:02:34.899Z,962.44
2023-03-22T04:03:34.585Z,962.47
2023-03-22T04:04:34.664Z,962.49
2023-03-22T04:05:34.542Z,962.51
2023-03-22T04:06:34.527Z,962.46
2023-03-22T04:07:34.519Z,962.46
2023-03-22T04:08:34.543Z,962.47
2023-03-22T04:09:34.542Z,962.51
2023-03-22T04:10:34.536Z,962.48
2023-03-22T04:11:34.472Z,962.50
2023-03-22T04:12:34.484Z,962.48
2023-03-22T04:13:34.481Z,962.49
2023-03-22T04:14:35.207Z,962.48
2023-03-22T04:15:34.466Z,962.47
2023-03-22T04:16:34.489Z,962.44
2023-03-22T04:17:34.465Z,962.46
2023-03-22T04:18:34.411Z,962.45
2023-03-22T04:19:34.395Z,962.43
2023-03-22T04:20:34.404Z,962.45
2023-03-22T04:21:34.403Z,962.42
2023-03-22T04:22:34.415Z,962.41
2023-03-22T04:23:34.343Z,962.42
2023-03-22T04:24:34.344Z,962.40
2023-03-22T04:25:34.346Z,962.38
2023-03-22T04:26:34.378Z,962.36
2023-03-22T04:27:34.342Z,962.39
2023-03-22T04:28:34.347Z,962.45
2023-03-22T04:29:34.279Z,962.40
2023-03-22T04:30:34.269Z,962.40
2023-03-22T04:31:34.275Z,962.39
2023-03-22T04:32:34.267Z,962.42
2023-03-22T04:33:34.277Z,962.40
2023-03-22T04:34:34.213Z,962.43
2023-03-22T04:35:34.220Z,962.43
2023-03-22T04:36:34.209Z,962.44
2023-03-22T04:37:34.320Z,962.44
2023-03-22T04:38:34.210Z,962.45
2023-03-22T04:39:34.220Z,962.43
2023-03-22T04:40:34.167Z,962.39
2023-03-22T04:41:34.336Z,962.38
2023-03-22T04:42:34.196Z,962.36
2023-03-22T04:43:34.147Z,962.40
2023-03-22T04:44:34.155Z,962.31
2023-03-22T04:45:34.120Z,962.32
2023-03-22T04:46:34.177Z,962.27
2023-03-22T04:47:34.076Z,962.25
2023-03-22T04:48:34.085Z,962.31
2023-03-22T04:49:34.089Z,962.26
2023-03-22T04:50:34.107Z,962.34
2023-03-22T04:51:34.143Z,962.30
2023-03-22T04:52:34.297Z,962.27
2023-03-22T04:53:34.032Z,962.30
2023-03-22T04:54:34.035Z,962.27
2023-03-22T04:55:34.170Z,962.34
2023-03-22T04:56:34.061Z,962.33
2023-03-22T04:57:34.163Z,962.33
2023-03-22T04:58:33.964Z,962.38
2023-03-22T04:59:34.260Z,962.42
2023-03-22T05:00:33.954Z,962.42
2023-03-22T05:01:34.069Z,962.38
2023-03-22T05:02:34.104Z,962.41
2023-03-22T05:03:33.893Z,962.42
2023-03-22T05:04:33.881Z,962.42
2023-03-22T05:05:33.895Z,962.45
2023-03-22T05:06:33.893Z,962.45
2023-03-22T05:07:33.896Z,962.41
2023-03-22T05:08:33.837Z,962.46
2023-03-22T05:09:33.832Z,962.42
2023-03-22T05:10:34.262Z,962.46
2023-03-22T05:11:33.935Z,962.44
2023-03-22T05:12:33.851Z,962.48
2023-03-22T05:13:33.849Z,962.46
2023-03-22T05:14:33.884Z,962.39
2023-03-22T05:15:34.288Z,962.48
2023-03-22T05:16:33.779Z,962.43
2023-03-22T05:17:33.765Z,962.47
2023-03-22T05:18:33.774Z,962.49
2023-03-22T05:19:33.772Z,962.44
2023-03-22T05:20:34.729Z,962.42
2023-03-22T05:21:33.786Z,962.43
2023-03-22T05:22:33.713Z,962.42
2023-03-22T05:23:33.735Z,962.48
2023-03-22T05:24:33.711Z,962.43
2023-03-22T05:25:33.644Z,962.45
2023-03-22T05:26:35.393Z,962.47
2023-03-22T05:27:35.271Z,962.45
2023-03-22T05:28:33.816Z,962.48
2023-03-22T05:29:33.650Z,962.47
2023-03-22T05:30:33.684Z,962.47
2023-03-22T05:31:33.701Z,962.47
2023-03-22T05:32:33.582Z,962.53
2023-03-22T05:33:33.573Z,962.56
2023-03-22T05:34:33.565Z,962.51
2023-03-22T05:35:33.630Z,962.54
2023-03-22T05:36:33.605Z,962.54
2023-03-22T05:37:33.527Z,962.52
2023-03-22T05:38:33.513Z,962.53
2023-03-22T05:39:33.608Z,962.56
2023-03-22T05:40:33.517Z,962.58
2023-03-22T05:41:35.893Z,962.55
2023-03-22T05:42:33.457Z,962.56
2023-03-22T05:43:33.604Z,962.54
2023-03-22T05:44:33.462Z,962.56
2023-03-22T05:45:33.471Z,962.53
2023-03-22T05:46:33.531Z,962.59
2023-03-22T05:47:33.460Z,962.56
2023-03-22T05:48:33.469Z,962.55
2023-03-22T05:49:33.383Z,962.57
2023-03-22T05:50:33.391Z,962.61
2023-03-22T05:51:33.409Z,962.63
2023-03-22T05:52:33.420Z,962.65
2023-03-22T05:53:33.341Z,962.60
2023-03-22T05:54:33.347Z,962.61
2023-03-22T05:55:33.317Z,962.60
2023-03-22T05:56:33.344Z,962.56
2023-03-22T05:57:33.347Z,962.59
2023-03-22T05:58:33.331Z,962.52
2023-03-22T05:59:33.276Z,962.55
2023-03-22T06:00:33.262Z,962.57
2023-03-22T06:01:33.288Z,962.60
2023-03-22T06:02:33.289Z,962.53
2023-03-22T06:03:33.410Z,962.56
2023-03-22T06:04:33.235Z,962.57
2023-03-22T06:05:33.277Z,962.54
2023-03-22T06:06:33.205Z,962.52
2023-03-22T06:07:33.232Z,962.52
2023-03-22T06:08:33.205Z,962.47
2023-03-22T06:09:33.212Z,962.52
2023-03-22T06:10:33.148Z,962.50
2023-03-22T06:11:33.140Z,962.53
2023-03-22T06:12:33.151Z,962.57
2023-03-22T06:13:33.153Z,962.48
2023-03-22T06:14:33.153Z,962.49
2023-03-22T06:15:33.170Z,962.51
2023-03-22T06:16:33.136Z,962.56
2023-03-22T06:17:33.090Z,962.53
2023-03-22T06:18:33.118Z,962.55
2023-03-22T06:19:33.086Z,962.49
2023-03-22T06:20:33.074Z,962.51
2023-03-22T06:21:33.073Z,962.48
2023-03-22T06:22:33.088Z,962.54
2023-03-22T06:23:33.018Z,962.55
2023-03-22T06:24:33.024Z,962.53
2023-03-22T06:25:32.999Z,962.56
2023-03-22T06:26:33.012Z,962.61
2023-03-22T06:27:33.024Z,962.58
2023-03-22T06:28:32.953Z,962.57
2023-03-22T06:29:32.957Z,962.54
2023-03-22T06:30:32.966Z,962.54
2023-03-22T06:31:32.952Z,962.56
2023-03-22T06:32:32.950Z,962.57
2023-03-22T06:33:32.957Z,962.55
2023-03-22T06:34:32.942Z,962.57
2023-03-22T06:35:33.027Z,962.55
2023-03-22T06:36:32.891Z,962.57
2023-03-22T06:37:32.893Z,962.58
2023-03-22T06:38:32.881Z,962.59
2023-03-22T06:39:32.878Z,962.58
2023-03-22T06:40:32.815Z,962.60
2023-03-22T06:41:32.845Z,962.59
2023-03-22T06:42:32.814Z,962.63
2023-03-22T06:43:32.848Z,962.65
2023-03-22T06:44:32.846Z,962.59
2023-03-22T06:45:32.763Z,962.65
2023-03-22T06:46:32.839Z,962.67
2023-03-22T06:47:32.772Z,962.65
2023-03-22T06:48:32.748Z,962.65
2023-03-22T06:49:32.924Z,962.70
2023-03-22T06:50:32.781Z,962.68
2023-03-22T06:51:32.687Z,962.74
2023-03-22T06:52:32.689Z,962.76
2023-03-22T06:53:32.693Z,962.79
2023-03-22T06:54:32.685Z,962.76
2023-03-22T06:55:32.691Z,962.76
2023-03-22T06:56:32.703Z,962.77
2023-03-22T06:57:32.645Z,962.80
2023-03-22T06:58:32.622Z,962.79
2023-03-22T06:59:32.624Z,962.78
2023-03-22T07:00:32.614Z,962.80
2023-03-22T07:01:32.640Z,962.76
2023-03-22T07:02:32.597Z,962.73
2023-03-22T07:03:32.558Z,962.78
2023-03-22T07:04:32.607Z,962.82
2023-03-22T07:05:32.543Z,962.78
2023-03-22T07:06:32.612Z,962.81
2023-03-22T07:07:32.510Z,962.78
2023-03-22T07:08:32.622Z,962.82
2023-03-22T07:09:32.482Z,962.81
2023-03-22T07:10:32.571Z,962.76
2023-03-22T07:11:32.498Z,962.76
2023-03-22T07:12:33.246Z,962.74
2023-03-22T07:13:32.438Z,962.77
2023-03-22T07:14:32.511Z,962.73
2023-03-22T07:15:32.503Z,962.75
2023-03-22T07:16:32.510Z,962.75
2023-03-22T07:17:32.446Z,962.71
2023-03-22T07:18:32.453Z,962.72
2023-03-22T07:19:32.443Z,962.75
2023-03-22T07:20:32.423Z,962.77
2023-03-22T07:21:32.365Z,962.72
2023-03-22T07:22:32.359Z,962.75
2023-03-22T07:23:32.350Z,962.75
2023-03-22T07:24:32.329Z,962.74
2023-03-22T07:25:32.311Z,962.71
2023-03-22T07:26:32.327Z,962.72
2023-03-22T07:27:32.504Z,962.74
2023-03-22T07:28:32.329Z,962.76
2023-03-22T07:29:32.322Z,962.76
2023-03-22T07:30:32.249Z,962.71
2023-03-22T07:31:32.295Z,962.68
2023-03-22T07:32:32.260Z,962.73
2023-03-22T07:33:32.280Z,962.68
2023-03-22T07:34:32.253Z,962.68
2023-03-22T07:35:32.411Z,962.72
2023-03-22T07:36:32.188Z,962.67
2023-03-22T07:37:32.174Z,962.66
2023-03-22T07:38:32.306Z,962.68
2023-03-22T07:39:32.189Z,962.70
2023-03-22T07:40:32.195Z,962.65
2023-03-22T07:41:32.167Z,962.68
2023-03-22T07:42:32.144Z,962.72
2023-03-22T07:43:34.056Z,962.71
2023-03-22T07:44:33.156Z,962.68
2023-03-22T07:45:32.163Z,962.69
2023-03-22T07:46:32.149Z,962.65
2023-03-22T07:47:40.811Z,962.66
2023-03-22T07:48:33.117Z,962.67
2023-03-22T07:49:32.087Z,962.70
2023-03-22T07:50:32.115Z,962.70
2023-03-22T07:51:32.035Z,962.72
2023-03-22T07:52:32.028Z,962.67
2023-03-22T07:53:32.815Z,962.66
2023-03-22T07:54:34.229Z,962.65
2023-03-22T07:55:32.013Z,962.69
2023-03-22T07:56:32.002Z,962.64
2023-03-22T07:57:31.974Z,962.67
2023-03-22T07:58:32.036Z,962.67
2023-03-22T07:59:31.930Z,962.67
2023-03-22T08:00:31.930Z,962.63
2023-03-22T08:01:31.941Z,962.64
2023-03-22T08:02:31.911Z,962.65
2023-03-22T08:03:31.956Z,962.65
2023-03-22T08:04:31.886Z,962.66
2023-03-22T08:05:31.880Z,962.67
2023-03-22T08:06:32.047Z,962.66
2023-03-22T08:07:31.883Z,962.65
2023-03-22T08:08:31.865Z,962.67
2023-03-22T08:09:31.852Z,962.66
2023-03-22T08:10:34.958Z,962.67
2023-03-22T08:11:31.826Z,962.65
2023-03-22T08:12:31.819Z,962.66
2023-03-22T08:13:31.815Z,962.71
2023-03-22T08:14:36.670Z,962.72
2023-03-22T08:15:33.145Z,962.67
2023-03-22T08:16:31.783Z,962.70
2023-03-22T08:17:31.749Z,962.67
2023-03-22T08:18:31.746Z,962.66
2023-03-22T08:19:31.754Z,962.68
2023-03-22T08:20:31.726Z,962.62
2023-03-22T08:21:31.806Z,962.66
2023-03-22T08:22:31.850Z,962.65
2023-03-22T08:23:41.316Z,962.61
2023-03-22T08:24:32.662Z,962.64
2023-03-22T08:25:31.701Z,962.57
2023-03-22T08:26:31.654Z,962.60
2023-03-22T08:27:31.765Z,962.69
2023-03-22T08:28:31.632Z,962.63
2023-03-22T08:29:31.631Z,962.67
2023-03-22T08:30:31.660Z,962.70
2023-03-22T08:31:31.723Z,962.64
2023-03-22T08:32:31.595Z,962.61
2023-03-22T08:33:31.553Z,962.63
2023-03-22T08:34:31.595Z,962.61
2023-03-22T08:35:31.577Z,962.62
2023-03-22T08:36:31.567Z,962.59
2023-03-22T08:37:31.569Z,962.64
2023-03-22T08:38:31.535Z,962.62
2023-03-22T08:39:31.485Z,962.61
2023-03-22T08:40:31.518Z,962.62
2023-03-22T08:41:31.496Z,962.58
2023-03-22T08:42:31.462Z,962.60
2023-03-22T08:43:31.475Z,962.61
2023-03-22T08:44:31.471Z,962.61
2023-03-22T08:45:31.472Z,962.59
2023-03-22T08:46:31.494Z,962.55
2023-03-22T08:47:31.399Z,962.59
2023-03-22T08:48:31.400Z,962.52
2023-03-22T08:49:31.371Z,962.54
2023-03-22T08:50:31.404Z,962.54
2023-03-22T08:51:31.372Z,962.58
2023-03-22T08:52:31.733Z,962.56
2023-03-22T08:53:31.373Z,962.60
2023-03-22T08:54:31.338Z,962.55
2023-03-22T08:55:31.331Z,962.53
2023-03-22T08:56:31.302Z,962.55
2023-03-22T08:57:31.312Z,962.53
2023-03-22T08:58:31.304Z,962.53
2023-03-22T08:59:31.288Z,962.53
2023-03-22T09:00:45.752Z,962.56
2023-03-22T09:01:32.350Z,962.56
2023-03-22T09:02:31.277Z,962.51
2023-03-22T09:03:31.258Z,962.51
2023-03-22T09:04:31.301Z,962.58
2023-03-22T09:05:31.206Z,962.53
2023-03-22T09:06:31.274Z,962.60
2023-03-22T09:07:31.174Z,962.50
2023-03-22T09:08:31.182Z,962.51
2023-03-22T09:09:31.185Z,962.50
2023-03-22T09:10:31.142Z,962.53
2023-03-22T09:11:31.146Z,962.49
2023-03-22T09:12:31.309Z,962.46
2023-03-22T09:13:31.119Z,962.49
2023-03-22T09:14:31.120Z,962.43
2023-03-22T09:15:31.105Z,962.44
2023-03-22T09:16:31.176Z,962.44
2023-03-22T09:17:31.089Z,962.42
2023-03-22T09:18:31.092Z,962.48
2023-03-22T09:19:31.049Z,962.47
2023-03-22T09:20:31.184Z,962.44
2023-03-22T09:21:31.133Z,962.49
2023-03-22T09:22:31.119Z,962.47
2023-03-22T09:23:31.018Z,962.41
2023-03-22T09:24:31.021Z,962.43
2023-03-22T09:25:30.996Z,962.38
2023-03-22T09:26:31.026Z,962.38
2023-03-22T09:27:31.004Z,962.39
2023-03-22T09:28:31.021Z,962.30
2023-03-22T09:29:30.928Z,962.27
2023-03-22T09:30:30.973Z,962.23
2023-03-22T09:31:30.986Z,962.26
2023-03-22T09:32:30.933Z,962.30
2023-03-22T09:33:30.926Z,962.22
2023-03-22T09:34:30.901Z,962.21
2023-03-22T09:35:30.949Z,962.21
2023-03-22T09:36:30.851Z,962.17
2023-03-22T09:37:30.860Z,962.18
2023-03-22T09:38:30.863Z,962.19
2023-03-22T09:39:30.876Z,962.17
2023-03-22T09:40:30.832Z,962.14
2023-03-22T09:41:30.826Z,962.16
2023-03-22T09:42:30.788Z,962.10
2023-03-22T09:43:33.066Z,962.15
2023-03-22T09:44:30.757Z,962.16
2023-03-22T09:45:30.781Z,962.08
2023-03-22T09:46:30.819Z,962.13
2023-03-22T09:47:42.291Z,962.11
2023-03-22T09:48:31.823Z,962.07
2023-03-22T09:49:32.147Z,962.06
2023-03-22T09:50:31.310Z,962.08
2023-03-22T09:51:30.717Z,962.10
2023-03-22T09:52:30.754Z,962.05
2023-03-22T09:53:30.681Z,961.99
2023-03-22T09:54:30.662Z,962.03
2023-03-22T09:55:30.689Z,962.02
2023-03-22T09:56:30.637Z,962.06
2023-03-22T09:57:30.634Z,962.01
2023-03-22T09:58:30.713Z,961.95
2023-03-22T09:59:30.622Z,961.96
2023-03-22T10:00:30.856Z,961.94
2023-03-22T10:01:30.937Z,961.91
2023-03-22T10:02:30.653Z,961.94
2023-03-22T10:03:30.598Z,961.98
2023-03-22T10:04:30.757Z,961.90
2023-03-22T10:05:30.550Z,961.93
2023-03-22T10:06:30.565Z,961.96
2023-03-22T10:07:30.522Z,961.86
2023-03-22T10:08:30.512Z,961.88
2023-03-22T10:09:30.521Z,961.94
2023-03-22T10:10:30.491Z,961.94
2023-03-22T10:11:30.488Z,961.92
2023-03-22T10:12:30.462Z,961.98
2023-03-22T10:13:30.452Z,961.99
2023-03-22T10:14:30.907Z,961.96
2023-03-22T10:15:30.460Z,961.90
2023-03-22T10:16:30.471Z,961.92
2023-03-22T10:17:30.423Z,961.90
2023-03-22T10:18:30.376Z,961.88
2023-03-22T10:19:30.478Z,961.81
2023-03-22T10:20:30.386Z,961.84
2023-03-22T10:21:30.389Z,961.85
2023-03-22T10:22:30.365Z,961.82
2023-03-22T10:23:30.403Z,961.84
2023-03-22T10:24:30.383Z,961.89
2023-03-22T10:25:30.314Z,961.85
2023-03-22T10:26:30.293Z,961.86
2023-03-22T10:27:30.299Z,961.83
2023-03-22T10:28:30.306Z,961.84
2023-03-22T10:29:30.403Z,961.83
2023-03-22T10:30:30.262Z,961.88
2023-03-22T10:31:30.333Z,961.86
2023-03-22T10:32:30.279Z,961.88
2023-03-22T10:33:38.360Z,961.91
2023-03-22T10:34:30.196Z,961.90
2023-03-22T10:35:30.207Z,961.82
2023-03-22T10:36:30.186Z,961.86
2023-03-22T10:37:30.170Z,961.80
2023-03-22T10:38:30.160Z,961.84
2023-03-22T10:39:30.162Z,961.77
2023-03-22T10:40:30.122Z,961.81
2023-03-22T10:41:30.121Z,961.86
2023-03-22T10:42:30.098Z,961.85
2023-03-22T10:43:30.107Z,961.78
2023-03-22T10:44:30.112Z,961.78
2023-03-22T10:45:30.069Z,961.79
2023-03-22T10:46:30.087Z,961.80
2023-03-22T10:47:30.063Z,961.76
2023-03-22T10:48:30.227Z,961.75
2023-03-22T10:49:30.049Z,961.83
2023-03-22T10:50:30.016Z,961.79
2023-03-22T10:51:30.017Z,961.77
2023-03-22T10:52:30.002Z,961.72
2023-03-22T10:53:30.028Z,961.75
2023-03-22T10:54:29.993Z,961.74
2023-03-22T10:55:29.978Z,961.75
2023-03-22T10:56:29.957Z,961.78
2023-03-22T10:57:29.947Z,961.75
2023-03-22T10:58:29.952Z,961.74
2023-03-22T10:59:29.939Z,961.72
2023-03-22T11:00:29.967Z,961.74
2023-03-22T11:01:30.072Z,961.69
2023-03-22T11:02:30.126Z,961.70
2023-03-22T11:03:29.893Z,961.77
2023-03-22T11:04:29.869Z,961.72
2023-03-22T11:05:29.877Z,961.68
2023-03-22T11:06:29.867Z,961.72
2023-03-22T11:07:29.843Z,961.76
2023-03-22T11:08:29.812Z,961.71
2023-03-22T11:09:29.804Z,961.69
2023-03-22T11:10:29.909Z,961.71
2023-03-22T11:11:29.814Z,961.74
2023-03-22T11:12:29.790Z,961.68
2023-03-22T11:13:29.776Z,961.70
2023-03-22T11:14:29.761Z,961.72
2023-03-22T11:15:29.754Z,961.69
2023-03-22T11:16:29.790Z,961.65
2023-03-22T11:17:29.726Z,961.65
2023-03-22T11:18:29.741Z,961.63
2023-03-22T11:19:29.711Z,961.59
2023-03-22T11:20:31.101Z,961.61
2023-03-22T11:21:29.681Z,961.55
2023-03-22T11:22:29.717Z,961.54
2023-03-22T11:23:29.694Z,961.59
2023-03-22T11:24:29.913Z,961.54
2023-03-22T11:25:29.618Z,961.58
2023-03-22T11:26:29.619Z,961.54
2023-03-22T11:27:29.629Z,961.56
2023-03-22T11:28:29.615Z,961.55
2023-03-22T11:29:29.575Z,961.52
2023-03-22T11:30:29.572Z,961.57
2023-03-22T11:31:29.613Z,961.57
2023-03-22T11:32:29.648Z,961.52
2023-03-22T11:33:29.738Z,961.45
2023-03-22T11:34:29.542Z,961.46
2023-03-22T11:35:29.571Z,961.43
2023-03-22T11:36:29.499Z,961.45
2023-03-22T11:37:29.484Z,961.42
2023-03-22T11:38:29.539Z,961.42
2023-03-22T11:39:29.541Z,961.44
2023-03-22T11:40:29.474Z,961.40
2023-03-22T11:41:29.482Z,961.35
2023-03-22T11:42:29.435Z,961.40
2023-03-22T11:43:29.455Z,961.32
2023-03-22T11:44:29.409Z,961.27
2023-03-22T11:45:29.404Z,961.27
2023-03-22T11:46:29.525Z,961.26
2023-03-22T11:47:29.449Z,961.29
2023-03-22T11:48:29.453Z,961.29
2023-03-22T11:49:29.365Z,961.20
2023-03-22T11:50:29.365Z,961.26
2023-03-22T11:51:29.360Z,961.20
2023-03-22T11:52:29.378Z,961.26
2023-03-22T11:53:29.344Z,961.23
2023-03-22T11:54:29.381Z,961.20
2023-03-22T11:55:29.330Z,961.18
2023-03-22T11:56:29.845Z,961.11
2023-03-22T11:57:29.261Z,961.16
2023-03-22T11:58:29.252Z,961.03
2023-03-22T11:59:29.254Z,961.07
2023-03-22T12:00:29.244Z,961.04
2023-03-22T12:01:29.240Z,961.04
2023-03-22T12:02:29.502Z,961.00
2023-03-22T12:03:29.348Z,961.07
2023-03-22T12:04:29.211Z,961.01
2023-03-22T12:05:29.170Z,961.01
2023-03-22T12:06:29.205Z,960.97
2023-03-22T12:07:29.162Z,960.99
2023-03-22T12:08:29.166Z,960.95
2023-03-22T12:09:29.136Z,960.92
2023-03-22T12:10:29.115Z,960.92
2023-03-22T12:11:29.125Z,960.90
2023-03-22T12:12:29.090Z,960.87
2023-03-22T12:13:29.096Z,960.80
2023-03-22T12:14:29.097Z,960.80
2023-03-22T12:15:29.064Z,960.85
2023-03-22T12:16:29.189Z,960.78
2023-03-22T12:17:29.074Z,960.73
2023-03-22T12:18:29.036Z,960.73
2023-03-22T12:19:29.029Z,960.76
2023-03-22T12:20:29.037Z,960.68
2023-03-22T12:21:28.993Z,960.71
2023-03-22T12:22:28.980Z,960.68
2023-03-22T12:23:28.971Z,960.59
2023-03-22T12:24:28.984Z,960.57
2023-03-22T12:25:28.965Z,960.58
2023-03-22T12:26:28.937Z,960.61
2023-03-22T12:27:28.954Z,960.60
2023-03-22T12:28:28.966Z,960.59